New Castle, CO

10:20 PM MDT on September 17, 2014 (GMT -0600)
Eagle County Regional | Change Station
CLOSE
Current Station
Airport
Location: Eagle,
Elevation: 6539 ft
Nearby Weather Stations

Elev 6539 ft 39.64 °N, 106.91 °W | Updated 5 minutes ago

Clear
Clear
57 °F
Feels Like 57 °F
N
6
Wind Variable Wind from ENE

Today
High -- | Low -- °F
--% Chance of Precip.
Yesterday
High -- | Low -- °F
Precip. -- in
6:53 AM 7:15 PM
Waning Crescent, 30% visible
Pressure 30.18 in
Visibility 10.0 miles
Clouds Clear
Dew Point 39 °F
Humidity 51%
Rainfall 0.00 in
Snow Depth 0 in , 0 in , 0 in
UV 0 out of 12
Pollen 5.60 out of 12
Air Quality Not available.
Flu Activity Not available.
METAR KEGE 180415Z AUTO 07005KT 10SM CLR 14/04 A3018 RMK AO1

More Conditions Fewer Conditions

Pressure 30.18 in
Visibility 10.0 miles
Clouds Clear
Dew Point 39 °F
Humidity 51%
Rainfall 0.00 in
Snow Depth 0 in , 0 in , 0 in
UV 0 out of 12
Pollen 5.60 out of 12
Air Quality Not available.
Flu Activity Not available.
METAR KEGE 180415Z AUTO 07005KT 10SM CLR 14/04 A3018 RMK AO1

More Conditions Fewer Conditions

10-Day Weather Forecast

Almanac

Astronomy

Sep. 17, 2014 Rise Set
Actual Time 6:53 AM MDT 7:15 PM MDT
Civil Twilight 6:26 AM MDT 7:42 PM MDT
Nautical Twilight 5:54 AM MDT 8:13 PM MDT
Astronomical Twilight 5:22 AM MDT 8:46 PM MDT
Moon 12:56 AM MDT (9/17) 3:26 PM MDT (9/17)
Length of Visible Light 13h 15m
Length of Day
12h 22m
Tomorrow will be 2m 34s shorter.
Waning Crescent, 30% of the Moon is Illuminated
Sep 18
Waning Crescent
Sep 24
New
Oct 1
First Quarter
Oct 8
Full
Oct 15
Last Quarter

Today's Extremes

State Highs State Lows

Community

WunderPhotos

Upload Photos

1,754,292 photos uploaded!

Nearby

Snow Depth

Station Depth Elevation
Michigan Creek 0 in 10600 ft
Arapaho Ridge 0 in 10960 ft
Overland Reservoir 0 in 9880 ft
Echo Lake 0 in 10600 ft
Berthoud Summit 0 in 11300 ft

Earthquake Activity

City Distance Mag. Time & Date
No recent earthquake activity has been reported nearby.
Minimum magnitude displayed is 2.5.

Coastal Water Temperatures

Place Temperature
No Stations Reporting

Nearby Weather Stations